sensor_id;sensor_type;location;lat;lon;timestamp;pressure;altitude;pressure_sealevel;temperature;humidity
7824;BME280;3957;48.61947800;9.05303100;2022-07-10T00:00:20;96762.91;;;15.80;92.49
7824;BME280;3957;48.61947800;9.05303100;2022-07-10T00:01:42;96763.28;;;15.77;92.77
7824;BME280;3957;48.61947800;9.05303100;2022-07-10T00:03:04;96760.22;;;15.73;93.31
7824;BME280;3957;48.61947800;9.05303100;2022-07-10T00:04:25;96764.78;;;15.73;93.24
7824;BME280;3957;48.61947800;9.05303100;2022-07-10T00:05:45;96761.75;;;15.62;93.73
7824;BME280;3957;48.61947800;9.05303100;2022-07-10T00:07:06;96755.38;;;15.57;94.30
7824;BME280;3957;48.61947800;9.05303100;2022-07-10T00:08:27;96757.63;;;15.60;94.05
7824;BME280;3957;48.61947800;9.05303100;2022-07-10T00:09:48;96758.72;;;15.52;94.87
7824;BME280;3957;48.61947800;9.05303100;2022-07-10T00:11:09;96760.81;;;15.50;94.83
7824;BME280;3957;48.61947800;9.05303100;2022-07-10T00:12:31;96755.63;;;15.48;95.22
7824;BME280;3957;48.61947800;9.05303100;2022-07-10T00:13:51;96754.97;;;15.53;94.75
7824;BME280;3957;48.61947800;9.05303100;2022-07-10T00:15:13;96753.13;;;15.54;94.79
7824;BME280;3957;48.61947800;9.05303100;2022-07-10T00:16:34;96750.97;;;15.62;94.19
7824;BME280;3957;48.61947800;9.05303100;2022-07-10T00:17:55;96752.00;;;15.61;94.04
7824;BME280;3957;48.61947800;9.05303100;2022-07-10T00:19:16;96755.09;;;15.65;94.23
7824;BME280;3957;48.61947800;9.05303100;2022-07-10T00:20:37;96750.31;;;15.67;94.26
7824;BME280;3957;48.61947800;9.05303100;2022-07-10T00:21:57;96749.88;;;15.70;93.83
7824;BME280;3957;48.61947800;9.05303100;2022-07-10T00:23:18;96751.97;;;15.68;94.27
7824;BME280;3957;48.61947800;9.05303100;2022-07-10T00:24:39;96752.78;;;15.69;93.64
7824;BME280;3957;48.61947800;9.05303100;2022-07-10T00:26:00;96750.97;;;15.62;94.75
7824;BME280;3957;48.61947800;9.05303100;2022-07-10T00:27:21;96760.50;;;15.65;94.75
7824;BME280;3957;48.61947800;9.05303100;2022-07-10T00:28:41;96757.19;;;15.63;93.95
7824;BME280;3957;48.61947800;9.05303100;2022-07-10T00:30:03;96751.56;;;15.64;94.21
7824;BME280;3957;48.61947800;9.05303100;2022-07-10T00:31:24;96755.69;;;15.67;93.92
7824;BME280;3957;48.61947800;9.05303100;2022-07-10T00:32:45;96758.16;;;15.69;93.99
7824;BME280;3957;48.61947800;9.05303100;2022-07-10T00:34:05;96754.66;;;15.68;92.97
7824;BME280;3957;48.61947800;9.05303100;2022-07-10T00:35:27;96745.91;;;15.73;93.25
7824;BME280;3957;48.61947800;9.05303100;2022-07-10T00:36:47;96754.84;;;15.73;92.74
7824;BME280;3957;48.61947800;9.05303100;2022-07-10T00:38:09;96748.19;;;15.76;93.01
7824;BME280;3957;48.61947800;9.05303100;2022-07-10T00:39:29;96746.50;;;15.81;92.41
7824;BME280;3957;48.61947800;9.05303100;2022-07-10T00:40:50;96749.41;;;15.80;92.11
7824;BME280;3957;48.61947800;9.05303100;2022-07-10T00:42:12;96741.72;;;15.77;91.98
7824;BME280;3957;48.61947800;9.05303100;2022-07-10T00:44:05;96743.19;;;15.79;91.59
7824;BME280;3957;48.61947800;9.05303100;2022-07-10T00:45:26;96745.47;;;15.83;91.41
7824;BME280;3957;48.61947800;9.05303100;2022-07-10T00:46:47;96747.53;;;15.80;91.63
7824;BME280;3957;48.61947800;9.05303100;2022-07-10T00:48:08;96745.03;;;15.79;92.36
7824;BME280;3957;48.61947800;9.05303100;2022-07-10T00:49:30;96748.56;;;15.79;92.11
7824;BME280;3957;48.61947800;9.05303100;2022-07-10T00:50:51;96754.38;;;15.76;92.14
7824;BME280;3957;48.61947800;9.05303100;2022-07-10T00:52:13;96749.59;;;15.78;91.73
7824;BME280;3957;48.61947800;9.05303100;2022-07-10T00:53:34;96750.03;;;15.75;91.90
7824;BME280;3957;48.61947800;9.05303100;2022-07-10T00:54:55;96747.19;;;15.70;91.80
7824;BME280;3957;48.61947800;9.05303100;2022-07-10T00:56:18;96749.66;;;15.72;91.09
7824;BME280;3957;48.61947800;9.05303100;2022-07-10T00:57:40;96745.34;;;15.64;91.32
7824;BME280;3957;48.61947800;9.05303100;2022-07-10T00:59:01;96743.09;;;15.61;91.34
7824;BME280;3957;48.61947800;9.05303100;2022-07-10T01:00:22;96735.22;;;15.59;91.56
7824;BME280;3957;48.61947800;9.05303100;2022-07-10T01:01:44;96741.66;;;15.58;91.49
7824;BME280;3957;48.61947800;9.05303100;2022-07-10T01:03:05;96735.66;;;15.56;91.57
7824;BME280;3957;48.61947800;9.05303100;2022-07-10T01:04:26;96736.72;;;15.55;91.54
7824;BME280;3957;48.61947800;9.05303100;2022-07-10T01:05:46;96733.44;;;15.46;92.70
7824;BME280;3957;48.61947800;9.05303100;2022-07-10T01:07:07;96730.38;;;15.43;92.72
7824;BME280;3957;48.61947800;9.05303100;2022-07-10T01:08:28;96725.44;;;15.40;92.62
7824;BME280;3957;48.61947800;9.05303100;2022-07-10T01:09:49;96723.16;;;15.37;93.17
7824;BME280;3957;48.61947800;9.05303100;2022-07-10T01:11:10;96723.41;;;15.28;94.51
7824;BME280;3957;48.61947800;9.05303100;2022-07-10T01:12:31;96722.38;;;15.29;94.16
7824;BME280;3957;48.61947800;9.05303100;2022-07-10T01:13:52;96718.47;;;15.25;94.87
7824;BME280;3957;48.61947800;9.05303100;2022-07-10T01:15:13;96719.69;;;15.29;95.18
7824;BME280;3957;48.61947800;9.05303100;2022-07-10T01:16:34;96710.31;;;15.32;95.46
7824;BME280;3957;48.61947800;9.05303100;2022-07-10T01:17:55;96709.56;;;15.25;95.87
7824;BME280;3957;48.61947800;9.05303100;2022-07-10T01:19:16;96718.06;;;15.22;96.22
7824;BME280;3957;48.61947800;9.05303100;2022-07-10T01:20:37;96713.31;;;15.17;96.55
7824;BME280;3957;48.61947800;9.05303100;2022-07-10T01:21:57;96709.59;;;15.18;96.96
7824;BME280;3957;48.61947800;9.05303100;2022-07-10T01:23:18;96713.94;;;15.19;97.05
7824;BME280;3957;48.61947800;9.05303100;2022-07-10T01:24:39;96712.88;;;15.20;96.74
7824;BME280;3957;48.61947800;9.05303100;2022-07-10T01:26:00;96717.25;;;15.21;97.10
7824;BME280;3957;48.61947800;9.05303100;2022-07-10T01:27:22;96720.34;;;15.25;97.34
7824;BME280;3957;48.61947800;9.05303100;2022-07-10T01:28:43;96705.78;;;15.26;97.21
7824;BME280;3957;48.61947800;9.05303100;2022-07-10T01:30:04;96717.41;;;15.26;97.61
7824;BME280;3957;48.61947800;9.05303100;2022-07-10T01:31:26;96711.00;;;15.27;97.74
7824;BME280;3957;48.61947800;9.05303100;2022-07-10T01:32:47;96709.13;;;15.28;97.51
7824;BME280;3957;48.61947800;9.05303100;2022-07-10T01:34:09;96716.16;;;15.29;97.33
7824;BME280;3957;48.61947800;9.05303100;2022-07-10T01:35:30;96712.25;;;15.25;97.17
7824;BME280;3957;48.61947800;9.05303100;2022-07-10T01:36:51;96712.25;;;15.25;97.18
7824;BME280;3957;48.61947800;9.05303100;2022-07-10T01:38:12;96712.47;;;15.23;97.29
7824;BME280;3957;48.61947800;9.05303100;2022-07-10T01:39:32;96716.44;;;15.21;97.43
7824;BME280;3957;48.61947800;9.05303100;2022-07-10T01:40:55;96713.31;;;15.17;97.76
7824;BME280;3957;48.61947800;9.05303100;2022-07-10T01:42:15;96717.50;;;15.13;97.79
7824;BME280;3957;48.61947800;9.05303100;2022-07-10T01:43:36;96716.91;;;15.11;98.34
7824;BME280;3957;48.61947800;9.05303100;2022-07-10T01:44:57;96715.47;;;15.08;98.54
7824;BME280;3957;48.61947800;9.05303100;2022-07-10T01:46:18;96719.00;;;15.02;98.45
7824;BME280;3957;48.61947800;9.05303100;2022-07-10T01:47:39;96712.19;;;15.00;98.40
7824;BME280;3957;48.61947800;9.05303100;2022-07-10T01:49:00;96717.63;;;14.93;99.08
7824;BME280;3957;48.61947800;9.05303100;2022-07-10T01:50:21;96716.56;;;14.94;98.34
7824;BME280;3957;48.61947800;9.05303100;2022-07-10T01:51:42;96718.09;;;14.83;98.99
7824;BME280;3957;48.61947800;9.05303100;2022-07-10T01:53:03;96722.06;;;14.81;99.03
7824;BME280;3957;48.61947800;9.05303100;2022-07-10T01:54:26;96717.47;;;14.81;98.95
7824;BME280;3957;48.61947800;9.05303100;2022-07-10T01:55:47;96719.56;;;14.79;99.21
7824;BME280;3957;48.61947800;9.05303100;2022-07-10T01:57:08;96717.06;;;14.77;99.52
7824;BME280;3957;48.61947800;9.05303100;2022-07-10T01:58:29;96714.81;;;14.74;100.00
7824;BME280;3957;48.61947800;9.05303100;2022-07-10T01:59:51;96713.59;;;14.70;99.92
7824;BME280;3957;48.61947800;9.05303100;2022-07-10T02:01:12;96707.97;;;14.72;99.88
7824;BME280;3957;48.61947800;9.05303100;2022-07-10T02:02:32;96713.41;;;14.65;99.91
7824;BME280;3957;48.61947800;9.05303100;2022-07-10T02:03:53;96720.66;;;14.65;100.00
7824;BME280;3957;48.61947800;9.05303100;2022-07-10T02:05:33;96716.13;;;14.58;100.00
7824;BME280;3957;48.61947800;9.05303100;2022-07-10T02:06:53;96712.78;;;14.63;100.00
7824;BME280;3957;48.61947800;9.05303100;2022-07-10T02:08:14;96713.81;;;14.62;100.00
7824;BME280;3957;48.61947800;9.05303100;2022-07-10T02:09:35;96718.81;;;14.58;100.00
7824;BME280;3957;48.61947800;9.05303100;2022-07-10T02:10:56;96711.56;;;14.52;100.00
7824;BME280;3957;48.61947800;9.05303100;2022-07-10T02:12:17;96705.59;;;14.50;100.00
7824;BME280;3957;48.61947800;9.05303100;2022-07-10T02:13:38;96706.41;;;14.44;100.00
7824;BME280;3957;48.61947800;9.05303100;2022-07-10T02:14:59;96716.19;;;14.38;100.00
7824;BME280;3957;48.61947800;9.05303100;2022-07-10T02:16:20;96712.06;;;14.29;100.00
7824;BME280;3957;48.61947800;9.05303100;2022-07-10T02:17:41;96715.59;;;14.23;100.00
7824;BME280;3957;48.61947800;9.05303100;2022-07-10T02:19:02;96712.94;;;14.16;100.00
7824;BME280;3957;48.61947800;9.05303100;2022-07-10T02:20:23;96718.94;;;14.11;100.00
7824;BME280;3957;48.61947800;9.05303100;2022-07-10T02:21:44;96716.88;;;14.07;100.00
7824;BME280;3957;48.61947800;9.05303100;2022-07-10T02:23:06;96716.28;;;14.05;100.00
7824;BME280;3957;48.61947800;9.05303100;2022-07-10T02:24:27;96718.97;;;14.05;100.00
7824;BME280;3957;48.61947800;9.05303100;2022-07-10T02:25:48;96718.75;;;14.00;100.00
7824;BME280;3957;48.61947800;9.05303100;2022-07-10T02:27:09;96706.97;;;14.01;100.00
7824;BME280;3957;48.61947800;9.05303100;2022-07-10T02:28:30;96712.34;;;14.01;100.00
7824;BME280;3957;48.61947800;9.05303100;2022-07-10T02:29:50;96716.88;;;14.00;100.00
7824;BME280;3957;48.61947800;9.05303100;2022-07-10T02:31:11;96721.25;;;13.94;100.00
7824;BME280;3957;48.61947800;9.05303100;2022-07-10T02:32:32;96716.69;;;14.02;100.00
7824;BME280;3957;48.61947800;9.05303100;2022-07-10T02:33:53;96717.94;;;13.99;100.00
7824;BME280;3957;48.61947800;9.05303100;2022-07-10T02:35:14;96720.00;;;14.04;100.00
7824;BME280;3957;48.61947800;9.05303100;2022-07-10T02:36:35;96722.03;;;14.08;100.00
7824;BME280;3957;48.61947800;9.05303100;2022-07-10T02:37:56;96729.09;;;14.09;100.00
7824;BME280;3957;48.61947800;9.05303100;2022-07-10T02:39:17;96722.69;;;14.10;100.00
7824;BME280;3957;48.61947800;9.05303100;2022-07-10T02:40:39;96729.09;;;14.09;100.00
7824;BME280;3957;48.61947800;9.05303100;2022-07-10T02:42:01;96717.91;;;14.12;100.00
7824;BME280;3957;48.61947800;9.05303100;2022-07-10T02:43:22;96732.59;;;14.17;100.00
7824;BME280;3957;48.61947800;9.05303100;2022-07-10T02:44:43;96729.06;;;14.16;100.00
7824;BME280;3957;48.61947800;9.05303100;2022-07-10T02:46:04;96735.72;;;14.14;100.00
7824;BME280;3957;48.61947800;9.05303100;2022-07-10T02:47:25;96722.25;;;14.14;100.00
7824;BME280;3957;48.61947800;9.05303100;2022-07-10T02:48:45;96723.91;;;14.15;100.00
7824;BME280;3957;48.61947800;9.05303100;2022-07-10T02:50:07;96729.69;;;14.18;100.00
7824;BME280;3957;48.61947800;9.05303100;2022-07-10T02:51:28;96730.53;;;14.19;100.00
7824;BME280;3957;48.61947800;9.05303100;2022-07-10T02:52:49;96728.88;;;14.18;100.00
7824;BME280;3957;48.61947800;9.05303100;2022-07-10T02:54:10;96729.06;;;14.23;100.00
7824;BME280;3957;48.61947800;9.05303100;2022-07-10T02:55:31;96726.97;;;14.25;100.00
7824;BME280;3957;48.61947800;9.05303100;2022-07-10T02:56:52;96732.13;;;14.26;100.00
7824;BME280;3957;48.61947800;9.05303100;2022-07-10T02:58:12;96738.34;;;14.34;100.00
7824;BME280;3957;48.61947800;9.05303100;2022-07-10T02:59:35;96729.84;;;14.37;100.00
7824;BME280;3957;48.61947800;9.05303100;2022-07-10T03:00:56;96731.31;;;14.39;100.00
7824;BME280;3957;48.61947800;9.05303100;2022-07-10T03:02:17;96733.97;;;14.46;100.00
7824;BME280;3957;48.61947800;9.05303100;2022-07-10T03:03:38;96723.81;;;14.48;100.00
7824;BME280;3957;48.61947800;9.05303100;2022-07-10T03:04:58;96716.50;;;14.62;100.00
7824;BME280;3957;48.61947800;9.05303100;2022-07-10T03:06:19;96731.66;;;14.63;100.00
7824;BME280;3957;48.61947800;9.05303100;2022-07-10T03:07:40;96721.88;;;14.62;100.00
7824;BME280;3957;48.61947800;9.05303100;2022-07-10T03:09:01;96722.75;;;14.62;100.00
7824;BME280;3957;48.61947800;9.05303100;2022-07-10T03:10:22;96715.06;;;14.59;100.00
7824;BME280;3957;48.61947800;9.05303100;2022-07-10T03:11:43;96724.00;;;14.53;100.00
7824;BME280;3957;48.61947800;9.05303100;2022-07-10T03:13:04;96722.97;;;14.54;100.00
7824;BME280;3957;48.61947800;9.05303100;2022-07-10T03:14:25;96716.50;;;14.62;100.00
7824;BME280;3957;48.61947800;9.05303100;2022-07-10T03:15:46;96724.44;;;14.50;100.00
7824;BME280;3957;48.61947800;9.05303100;2022-07-10T03:17:06;96731.09;;;14.41;100.00
7824;BME280;3957;48.61947800;9.05303100;2022-07-10T03:18:27;96729.06;;;14.29;100.00
7824;BME280;3957;48.61947800;9.05303100;2022-07-10T03:19:49;96723.91;;;14.21;100.00
7824;BME280;3957;48.61947800;9.05303100;2022-07-10T03:21:09;96729.06;;;14.23;100.00
7824;BME280;3957;48.61947800;9.05303100;2022-07-10T03:22:30;96726.59;;;14.21;100.00
7824;BME280;3957;48.61947800;9.05303100;2022-07-10T03:23:53;96729.50;;;14.20;100.00
7824;BME280;3957;48.61947800;9.05303100;2022-07-10T03:25:13;96724.50;;;14.17;100.00
7824;BME280;3957;48.61947800;9.05303100;2022-07-10T03:26:34;96728.66;;;14.12;100.00
7824;BME280;3957;48.61947800;9.05303100;2022-07-10T03:27:55;96723.91;;;14.08;100.00
7824;BME280;3957;48.61947800;9.05303100;2022-07-10T03:29:15;96721.44;;;14.06;100.00
7824;BME280;3957;48.61947800;9.05303100;2022-07-10T03:30:36;96726.41;;;14.03;100.00
7824;BME280;3957;48.61947800;9.05303100;2022-07-10T03:31:57;96729.53;;;14.00;100.00
7824;BME280;3957;48.61947800;9.05303100;2022-07-10T03:33:18;96737.00;;;13.98;100.00
7824;BME280;3957;48.61947800;9.05303100;2022-07-10T03:34:38;96732.63;;;14.03;100.00
7824;BME280;3957;48.61947800;9.05303100;2022-07-10T03:35:59;96731.56;;;14.04;100.00
7824;BME280;3957;48.61947800;9.05303100;2022-07-10T03:37:23;96724.97;;;14.00;100.00
7824;BME280;3957;48.61947800;9.05303100;2022-07-10T03:38:44;96735.34;;;13.97;100.00
7824;BME280;3957;48.61947800;9.05303100;2022-07-10T03:40:07;96729.53;;;13.93;100.00
7824;BME280;3957;48.61947800;9.05303100;2022-07-10T03:41:28;96733.66;;;13.89;100.00
7824;BME280;3957;48.61947800;9.05303100;2022-07-10T03:42:49;96727.91;;;13.85;100.00
7824;BME280;3957;48.61947800;9.05303100;2022-07-10T03:44:09;96728.72;;;13.92;100.00
7824;BME280;3957;48.61947800;9.05303100;2022-07-10T03:45:30;96727.47;;;13.88;100.00
7824;BME280;3957;48.61947800;9.05303100;2022-07-10T03:46:51;96731.41;;;13.86;100.00
7824;BME280;3957;48.61947800;9.05303100;2022-07-10T03:48:12;96723.13;;;13.87;100.00
7824;BME280;3957;48.61947800;9.05303100;2022-07-10T03:49:33;96733.06;;;13.87;100.00
7824;BME280;3957;48.61947800;9.05303100;2022-07-10T03:50:53;96731.63;;;13.91;100.00
7824;BME280;3957;48.61947800;9.05303100;2022-07-10T03:52:14;96729.72;;;13.98;100.00
7824;BME280;3957;48.61947800;9.05303100;2022-07-10T03:53:35;96726.41;;;13.96;100.00
7824;BME280;3957;48.61947800;9.05303100;2022-07-10T03:54:56;96726.22;;;13.98;100.00
7824;BME280;3957;48.61947800;9.05303100;2022-07-10T03:56:17;96725.81;;;13.94;100.00
7824;BME280;3957;48.61947800;9.05303100;2022-07-10T03:57:57;96727.47;;;13.88;100.00
7824;BME280;3957;48.61947800;9.05303100;2022-07-10T03:59:19;96731.63;;;13.91;100.00
7824;BME280;3957;48.61947800;9.05303100;2022-07-10T04:00:40;96729.75;;;13.91;100.00
7824;BME280;3957;48.61947800;9.05303100;2022-07-10T04:02:03;96730.16;;;13.95;100.00
7824;BME280;3957;48.61947800;9.05303100;2022-07-10T04:03:23;96732.22;;;13.93;100.00
7824;BME280;3957;48.61947800;9.05303100;2022-07-10T04:04:44;96728.28;;;13.89;100.00
7824;BME280;3957;48.61947800;9.05303100;2022-07-10T04:06:05;96726.63;;;13.88;100.00
7824;BME280;3957;48.61947800;9.05303100;2022-07-10T04:07:26;96732.66;;;13.90;100.00
7824;BME280;3957;48.61947800;9.05303100;2022-07-10T04:08:46;96730.38;;;13.93;100.00
7824;BME280;3957;48.61947800;9.05303100;2022-07-10T04:10:08;96730.75;;;13.97;100.00
7824;BME280;3957;48.61947800;9.05303100;2022-07-10T04:11:30;96724.78;;;13.95;100.00
7824;BME280;3957;48.61947800;9.05303100;2022-07-10T04:12:51;96725.38;;;13.97;100.00
7824;BME280;3957;48.61947800;9.05303100;2022-07-10T04:14:12;96729.31;;;14.01;100.00
7824;BME280;3957;48.61947800;9.05303100;2022-07-10T04:15:32;96722.47;;;14.12;100.00
7824;BME280;3957;48.61947800;9.05303100;2022-07-10T04:16:53;96723.69;;;14.16;100.00
7824;BME280;3957;48.61947800;9.05303100;2022-07-10T04:18:14;96717.66;;;14.27;100.00
7824;BME280;3957;48.61947800;9.05303100;2022-07-10T04:19:35;96718.06;;;14.38;100.00
7824;BME280;3957;48.61947800;9.05303100;2022-07-10T04:20:55;96715.25;;;14.71;100.00
7824;BME280;3957;48.61947800;9.05303100;2022-07-10T04:22:16;96712.81;;;15.02;100.00
7824;BME280;3957;48.61947800;9.05303100;2022-07-10T04:23:37;96710.25;;;15.45;100.00
7824;BME280;3957;48.61947800;9.05303100;2022-07-10T04:24:57;96716.88;;;15.93;99.00
7824;BME280;3957;48.61947800;9.05303100;2022-07-10T04:26:18;96714.38;;;16.54;97.22
7824;BME280;3957;48.61947800;9.05303100;2022-07-10T04:27:39;96721.56;;;16.97;92.45
7824;BME280;3957;48.61947800;9.05303100;2022-07-10T04:29:01;96724.06;;;17.53;87.79
7824;BME280;3957;48.61947800;9.05303100;2022-07-10T04:30:21;96721.84;;;17.85;86.46
7824;BME280;3957;48.61947800;9.05303100;2022-07-10T04:31:42;96711.78;;;18.05;85.56
7824;BME280;3957;48.61947800;9.05303100;2022-07-10T04:33:03;96721.59;;;18.58;83.30
7824;BME280;3957;48.61947800;9.05303100;2022-07-10T04:34:24;96715.09;;;19.12;79.57
7824;BME280;3957;48.61947800;9.05303100;2022-07-10T04:35:45;96718.97;;;19.16;76.82
7824;BME280;3957;48.61947800;9.05303100;2022-07-10T04:37:06;96717.44;;;19.54;76.10
7824;BME280;3957;48.61947800;9.05303100;2022-07-10T04:38:29;96725.00;;;19.81;73.23
7824;BME280;3957;48.61947800;9.05303100;2022-07-10T04:39:52;96722.84;;;20.00;71.16
7824;BME280;3957;48.61947800;9.05303100;2022-07-10T04:41:12;96726.09;;;20.36;68.92
7824;BME280;3957;48.61947800;9.05303100;2022-07-10T04:42:33;96725.25;;;20.35;68.42
7824;BME280;3957;48.61947800;9.05303100;2022-07-10T04:43:54;96726.91;;;20.59;67.81
7824;BME280;3957;48.61947800;9.05303100;2022-07-10T04:45:15;96721.66;;;20.69;66.43
7824;BME280;3957;48.61947800;9.05303100;2022-07-10T04:46:35;96725.41;;;21.12;66.48
7824;BME280;3957;48.61947800;9.05303100;2022-07-10T04:47:56;96733.75;;;21.05;65.82
7824;BME280;3957;48.61947800;9.05303100;2022-07-10T04:49:17;96723.16;;;21.31;63.90
7824;BME280;3957;48.61947800;9.05303100;2022-07-10T04:50:38;96731.00;;;21.28;62.89
7824;BME280;3957;48.61947800;9.05303100;2022-07-10T04:51:58;96725.69;;;21.38;63.61
7824;BME280;3957;48.61947800;9.05303100;2022-07-10T04:53:19;96728.13;;;21.39;62.06
7824;BME280;3957;48.61947800;9.05303100;2022-07-10T04:54:40;96728.34;;;21.33;63.35
7824;BME280;3957;48.61947800;9.05303100;2022-07-10T04:56:01;96733.34;;;21.73;59.47
7824;BME280;3957;48.61947800;9.05303100;2022-07-10T04:57:22;96739.53;;;21.64;60.74
7824;BME280;3957;48.61947800;9.05303100;2022-07-10T04:58:43;96730.75;;;21.29;62.48
7824;BME280;3957;48.61947800;9.05303100;2022-07-10T05:00:04;96731.00;;;21.28;60.96
7824;BME280;3957;48.61947800;9.05303100;2022-07-10T05:01:25;96730.06;;;20.50;63.00
7824;BME280;3957;48.61947800;9.05303100;2022-07-10T05:02:46;96733.09;;;20.15;64.33
7824;BME280;3957;48.61947800;9.05303100;2022-07-10T05:04:07;96739.47;;;20.03;63.34
7824;BME280;3957;48.61947800;9.05303100;2022-07-10T05:05:28;96738.13;;;19.72;64.59
7824;BME280;3957;48.61947800;9.05303100;2022-07-10T05:06:49;96738.63;;;18.94;69.48
7824;BME280;3957;48.61947800;9.05303100;2022-07-10T05:08:10;96743.06;;;18.60;72.25
7824;BME280;3957;48.61947800;9.05303100;2022-07-10T05:09:31;96742.28;;;18.35;74.36
7824;BME280;3957;48.61947800;9.05303100;2022-07-10T05:10:51;96748.34;;;18.66;74.98
7824;BME280;3957;48.61947800;9.05303100;2022-07-10T05:12:12;96744.28;;;18.16;75.94
7824;BME280;3957;48.61947800;9.05303100;2022-07-10T05:13:33;96751.13;;;18.19;74.99
7824;BME280;3957;48.61947800;9.05303100;2022-07-10T05:14:54;96754.81;;;17.82;77.10
7824;BME280;3957;48.61947800;9.05303100;2022-07-10T05:16:15;96745.97;;;17.51;78.13
7824;BME280;3957;48.61947800;9.05303100;2022-07-10T05:17:36;96754.81;;;17.28;79.84
7824;BME280;3957;48.61947800;9.05303100;2022-07-10T05:18:57;96750.91;;;17.12;80.38
7824;BME280;3957;48.61947800;9.05303100;2022-07-10T05:20:18;96739.81;;;16.83;81.41
7824;BME280;3957;48.61947800;9.05303100;2022-07-10T05:21:38;96748.53;;;16.48;85.43
7824;BME280;3957;48.61947800;9.05303100;2022-07-10T05:22:59;96748.19;;;16.20;87.29
7824;BME280;3957;48.61947800;9.05303100;2022-07-10T05:24:20;96749.84;;;16.02;89.21
7824;BME280;3957;48.61947800;9.05303100;2022-07-10T05:25:41;96743.75;;;15.88;89.00
7824;BME280;3957;48.61947800;9.05303100;2022-07-10T05:27:02;96749.81;;;15.77;91.35
7824;BME280;3957;48.61947800;9.05303100;2022-07-10T05:28:23;96746.97;;;15.72;90.31
7824;BME280;3957;48.61947800;9.05303100;2022-07-10T05:29:43;96744.25;;;15.72;89.91
7824;BME280;3957;48.61947800;9.05303100;2022-07-10T05:31:04;96747.38;;;15.69;91.21
7824;BME280;3957;48.61947800;9.05303100;2022-07-10T05:32:25;96744.91;;;15.67;92.29
7824;BME280;3957;48.61947800;9.05303100;2022-07-10T05:33:46;96746.28;;;15.76;90.31
7824;BME280;3957;48.61947800;9.05303100;2022-07-10T05:35:07;96742.75;;;15.83;89.98
7824;BME280;3957;48.61947800;9.05303100;2022-07-10T05:36:28;96740.25;;;15.81;89.15
7824;BME280;3957;48.61947800;9.05303100;2022-07-10T05:37:49;96746.91;;;15.78;89.45
7824;BME280;3957;48.61947800;9.05303100;2022-07-10T05:39:09;96751.69;;;15.76;90.01
7824;BME280;3957;48.61947800;9.05303100;2022-07-10T05:40:30;96752.19;;;15.92;86.84
7824;BME280;3957;48.61947800;9.05303100;2022-07-10T05:41:52;96751.03;;;15.81;88.18
7824;BME280;3957;48.61947800;9.05303100;2022-07-10T05:43:13;96756.03;;;15.77;88.07
7824;BME280;3957;48.61947800;9.05303100;2022-07-10T05:44:34;96758.63;;;15.65;89.23
7824;BME280;3957;48.61947800;9.05303100;2022-07-10T05:45:55;96753.53;;;15.51;90.66
7824;BME280;3957;48.61947800;9.05303100;2022-07-10T05:47:16;96754.88;;;15.41;91.23
7824;BME280;3957;48.61947800;9.05303100;2022-07-10T05:48:37;96756.34;;;15.37;92.59
7824;BME280;3957;48.61947800;9.05303100;2022-07-10T05:49:59;96760.13;;;15.29;94.30
7824;BME280;3957;48.61947800;9.05303100;2022-07-10T05:51:20;96758.41;;;15.35;92.80
7824;BME280;3957;48.61947800;9.05303100;2022-07-10T05:52:41;96762.38;;;15.33;93.30
7824;BME280;3957;48.61947800;9.05303100;2022-07-10T05:54:01;96766.31;;;15.30;93.39
7824;BME280;3957;48.61947800;9.05303100;2022-07-10T05:55:22;96763.81;;;15.35;94.20
7824;BME280;3957;48.61947800;9.05303100;2022-07-10T05:56:44;96761.28;;;15.40;94.51
7824;BME280;3957;48.61947800;9.05303100;2022-07-10T05:58:05;96768.56;;;15.40;94.48
7824;BME280;3957;48.61947800;9.05303100;2022-07-10T05:59:26;96768.88;;;15.25;93.33
7824;BME280;3957;48.61947800;9.05303100;2022-07-10T06:00:47;96762.59;;;15.31;93.08
7824;BME280;3957;48.61947800;9.05303100;2022-07-10T06:02:10;96764.94;;;15.53;92.85
7824;BME280;3957;48.61947800;9.05303100;2022-07-10T06:03:32;96768.16;;;15.68;90.21
7824;BME280;3957;48.61947800;9.05303100;2022-07-10T06:04:53;96772.44;;;16.26;87.08
7824;BME280;3957;48.61947800;9.05303100;2022-07-10T06:06:14;96766.59;;;17.04;82.89
7824;BME280;3957;48.61947800;9.05303100;2022-07-10T06:07:37;96780.31;;;18.29;76.54
7824;BME280;3957;48.61947800;9.05303100;2022-07-10T06:08:58;96775.22;;;19.20;72.05
7824;BME280;3957;48.61947800;9.05303100;2022-07-10T06:10:19;96770.16;;;20.21;67.49
7824;BME280;3957;48.61947800;9.05303100;2022-07-10T06:11:40;96768.00;;;20.40;66.55
7824;BME280;3957;48.61947800;9.05303100;2022-07-10T06:13:02;96771.19;;;20.54;62.57
7824;BME280;3957;48.61947800;9.05303100;2022-07-10T06:14:23;96773.63;;;20.16;61.44
7824;BME280;3957;48.61947800;9.05303100;2022-07-10T06:15:43;96776.19;;;20.06;62.46
7824;BME280;3957;48.61947800;9.05303100;2022-07-10T06:17:04;96777.63;;;19.63;63.53
7824;BME280;3957;48.61947800;9.05303100;2022-07-10T06:18:25;96774.44;;;19.54;65.10
7824;BME280;3957;48.61947800;9.05303100;2022-07-10T06:19:46;96777.28;;;19.30;62.45
7824;BME280;3957;48.61947800;9.05303100;2022-07-10T06:21:07;96785.94;;;18.75;66.20
7824;BME280;3957;48.61947800;9.05303100;2022-07-10T06:22:28;96784.56;;;18.60;66.14
7824;BME280;3957;48.61947800;9.05303100;2022-07-10T06:23:52;96790.91;;;18.07;69.27
7824;BME280;3957;48.61947800;9.05303100;2022-07-10T06:25:13;96783.22;;;17.49;71.96
7824;BME280;3957;48.61947800;9.05303100;2022-07-10T06:26:34;96786.56;;;17.21;72.99